createdAt,value
2023-02-02T00:01:45.857Z,98599.00
2023-02-02T00:04:29.052Z,98614.00
2023-02-02T00:06:57.180Z,98608.00
2023-02-02T00:09:25.942Z,98615.00
2023-02-02T00:11:52.851Z,98601.00
2023-02-02T00:14:19.724Z,98616.00
2023-02-02T00:16:52.132Z,98617.00
2023-02-02T00:19:26.495Z,98585.00
2023-02-02T00:21:55.013Z,98617.00
2023-02-02T00:24:22.485Z,98617.00
2023-02-02T00:26:58.521Z,98614.00
2023-02-02T00:29:31.627Z,98608.00
2023-02-02T00:31:58.729Z,98582.00
2023-02-02T00:34:25.985Z,98601.00
2023-02-02T00:36:53.443Z,98604.00
2023-02-02T00:39:26.000Z,98611.00
2023-02-02T00:41:53.701Z,98597.00
2023-02-02T00:44:39.171Z,98616.00
2023-02-02T00:47:06.099Z,98591.00
2023-02-02T00:49:32.937Z,98598.00
2023-02-02T00:52:02.671Z,98599.00
2023-02-02T00:54:29.793Z,98599.00
2023-02-02T00:56:56.657Z,98599.00
2023-02-02T00:59:23.532Z,98595.00
2023-02-02T01:01:50.401Z,98589.00
2023-02-02T01:04:17.320Z,98588.00
2023-02-02T01:06:44.245Z,98585.00
2023-02-02T01:09:11.191Z,98576.00
2023-02-02T01:11:38.105Z,98548.00
2023-02-02T01:14:05.630Z,98585.00
2023-02-02T01:16:32.690Z,98564.00
2023-02-02T01:18:59.563Z,98579.00
2023-02-02T01:21:26.419Z,98560.00
2023-02-02T01:23:53.406Z,98577.00
2023-02-02T01:26:20.266Z,98579.00
2023-02-02T01:28:47.626Z,98583.00
2023-02-02T01:31:20.989Z,98575.00
2023-02-02T01:33:50.271Z,98585.00
2023-02-02T01:36:22.341Z,98579.00
2023-02-02T01:38:50.536Z,98562.00
2023-02-02T01:41:24.067Z,98588.00
2023-02-02T01:44:00.993Z,98585.00
2023-02-02T01:46:34.672Z,98590.00
2023-02-02T01:49:12.538Z,98587.00
2023-02-02T01:51:58.951Z,98561.00
2023-02-02T01:54:38.315Z,98586.00
2023-02-02T01:57:16.828Z,98589.00
2023-02-02T01:59:46.779Z,98589.00
2023-02-02T02:02:14.327Z,98583.00
2023-02-02T02:04:42.529Z,98587.00
2023-02-02T02:07:10.116Z,98584.00
2023-02-02T02:09:37.157Z,98588.00
2023-02-02T02:12:13.338Z,98582.00
2023-02-02T02:14:58.893Z,98582.00
2023-02-02T02:18:21.210Z,98583.00
2023-02-02T02:21:38.900Z,98577.00
2023-02-02T02:24:58.736Z,98586.00
2023-02-02T02:28:03.800Z,98585.00
2023-02-02T02:31:15.471Z,98581.00
2023-02-02T02:34:04.093Z,98587.00
2023-02-02T02:37:04.709Z,98589.00
2023-02-02T02:39:57.553Z,98596.00
2023-02-02T02:42:30.956Z,98583.00
2023-02-02T02:45:03.700Z,98586.00
2023-02-02T02:47:32.623Z,98592.00
2023-02-02T02:49:59.451Z,98581.00
2023-02-02T02:52:26.257Z,98580.00
2023-02-02T02:54:59.087Z,98585.00
2023-02-02T02:57:41.419Z,98581.00
2023-02-02T03:00:30.093Z,98578.00
2023-02-02T03:03:11.824Z,98578.00
2023-02-02T03:05:59.465Z,98579.00
2023-02-02T03:08:41.447Z,98578.00
2023-02-02T03:11:11.898Z,98574.00
2023-02-02T03:13:41.111Z,98571.00
2023-02-02T03:16:09.604Z,98561.00
2023-02-02T03:18:36.585Z,98570.00
2023-02-02T03:21:03.880Z,98570.00
2023-02-02T03:23:30.983Z,98565.00
2023-02-02T03:25:57.868Z,98555.00
2023-02-02T03:28:25.626Z,98563.00
2023-02-02T03:30:54.865Z,98567.00
2023-02-02T03:33:22.673Z,98552.00
2023-02-02T03:35:49.901Z,98566.00
2023-02-02T03:38:16.863Z,98569.00
2023-02-02T03:40:43.826Z,98566.00
2023-02-02T03:43:10.960Z,98577.00
2023-02-02T03:45:40.670Z,98558.00
2023-02-02T03:48:07.628Z,98567.00
2023-02-02T03:50:34.785Z,98581.00
2023-02-02T03:53:01.708Z,98570.00
2023-02-02T03:55:28.533Z,98575.00
2023-02-02T03:57:55.378Z,98577.00
2023-02-02T04:00:22.742Z,98563.00
2023-02-02T04:02:49.656Z,98587.00
2023-02-02T04:05:16.621Z,98583.00
2023-02-02T04:07:43.433Z,98590.00
2023-02-02T04:10:11.045Z,98592.00
2023-02-02T04:12:37.925Z,98596.00
2023-02-02T04:15:05.559Z,98596.00
2023-02-02T04:17:32.480Z,98591.00
2023-02-02T04:19:59.416Z,98598.00
2023-02-02T04:22:26.892Z,98603.00
2023-02-02T04:24:53.755Z,98602.00
2023-02-02T04:27:20.636Z,98610.00
2023-02-02T04:29:47.505Z,98611.00
2023-02-02T04:32:18.570Z,98607.00
2023-02-02T04:34:45.443Z,98609.00
2023-02-02T04:37:12.611Z,98610.00
2023-02-02T04:39:39.431Z,98622.00
2023-02-02T04:42:06.431Z,98620.00
2023-02-02T04:44:33.648Z,98631.00
2023-02-02T04:47:00.513Z,98633.00
2023-02-02T04:49:27.388Z,98629.00
2023-02-02T04:51:54.474Z,98623.00
2023-02-02T04:54:21.428Z,98636.00
2023-02-02T04:56:48.253Z,98639.00
2023-02-02T04:59:15.044Z,98640.00
2023-02-02T05:01:41.975Z,98644.00
2023-02-02T05:04:08.902Z,98642.00
2023-02-02T05:06:35.809Z,98646.00
2023-02-02T05:09:03.060Z,98649.00
2023-02-02T05:11:30.835Z,98657.00
2023-02-02T05:13:57.658Z,98661.00
2023-02-02T05:16:27.762Z,98670.00
2023-02-02T05:18:57.778Z,98663.00
2023-02-02T05:21:25.289Z,98676.00
2023-02-02T05:23:52.254Z,98665.00
2023-02-02T05:26:25.148Z,98665.00
2023-02-02T05:28:52.757Z,98675.00
2023-02-02T05:31:20.744Z,98674.00
2023-02-02T05:33:47.900Z,98676.00
2023-02-02T05:36:14.976Z,98674.00
2023-02-02T05:38:41.824Z,98677.00
2023-02-02T05:41:08.616Z,98673.00
2023-02-02T05:43:35.811Z,98677.00
2023-02-02T05:46:02.813Z,98686.00
2023-02-02T05:48:29.769Z,98681.00
2023-02-02T05:51:15.070Z,98699.00
2023-02-02T05:53:41.940Z,98689.00
2023-02-02T05:56:08.835Z,98723.00
2023-02-02T05:58:35.718Z,98706.00
2023-02-02T06:01:03.010Z,98714.00
2023-02-02T06:03:29.900Z,98716.00
2023-02-02T06:05:56.733Z,98726.00
2023-02-02T06:08:23.632Z,98735.00
2023-02-02T06:10:50.461Z,98736.00
2023-02-02T06:13:17.475Z,98738.00
2023-02-02T06:15:44.390Z,98741.00
2023-02-02T06:18:11.233Z,98737.00
2023-02-02T06:20:38.264Z,98743.00
2023-02-02T06:23:05.750Z,98747.00
2023-02-02T06:25:34.233Z,98760.00
2023-02-02T06:28:01.378Z,98754.00
2023-02-02T06:30:28.623Z,98757.00
2023-02-02T06:32:55.454Z,98762.00
2023-02-02T06:35:22.785Z,98768.00
2023-02-02T06:37:49.921Z,98781.00
2023-02-02T06:40:17.367Z,98782.00
2023-02-02T06:42:44.178Z,98787.00
2023-02-02T06:45:11.649Z,98785.00
2023-02-02T06:47:38.496Z,98794.00
2023-02-02T06:50:05.516Z,98794.00
2023-02-02T06:52:32.334Z,98800.00
2023-02-02T06:54:59.177Z,98806.00
2023-02-02T06:57:26.165Z,98807.00
2023-02-02T06:59:53.070Z,98808.00
2023-02-02T07:02:20.275Z,98811.00
2023-02-02T07:04:47.181Z,98816.00
2023-02-02T07:07:14.007Z,98830.00
2023-02-02T07:09:40.838Z,98825.00
2023-02-02T07:12:07.696Z,98835.00
2023-02-02T07:14:34.530Z,98853.00
2023-02-02T07:17:01.413Z,98853.00
2023-02-02T07:19:28.265Z,98861.00
2023-02-02T07:21:57.439Z,98880.00
2023-02-02T07:24:24.359Z,98883.00
2023-02-02T07:26:51.261Z,98890.00
2023-02-02T07:29:18.180Z,98894.00
2023-02-02T07:31:48.123Z,98900.00
2023-02-02T07:34:15.075Z,98911.00
2023-02-02T07:36:42.357Z,98925.00
2023-02-02T07:39:09.261Z,98927.00
2023-02-02T07:41:37.349Z,98921.00
2023-02-02T07:44:05.452Z,98934.00
2023-02-02T07:46:32.454Z,98927.00
2023-02-02T07:48:59.395Z,98957.00
2023-02-02T07:51:26.448Z,98948.00
2023-02-02T07:53:58.472Z,98964.00
2023-02-02T07:56:30.516Z,98968.00
2023-02-02T07:58:57.890Z,98963.00
2023-02-02T08:01:27.295Z,98974.00
2023-02-02T08:03:59.025Z,98988.00
2023-02-02T08:06:29.844Z,99003.00
2023-02-02T08:08:57.460Z,99009.00
2023-02-02T08:11:26.136Z,99022.00
2023-02-02T08:13:59.108Z,99025.00
2023-02-02T08:16:27.452Z,99036.00
2023-02-02T08:18:55.017Z,99052.00
2023-02-02T08:21:22.847Z,99037.00
2023-02-02T08:23:51.854Z,99065.00
2023-02-02T08:26:28.542Z,99062.00
2023-02-02T08:29:05.573Z,99078.00
2023-02-02T08:31:41.705Z,99074.00
2023-02-02T08:34:08.897Z,99087.00
2023-02-02T08:36:35.794Z,99090.00
2023-02-02T08:39:07.159Z,99094.00
2023-02-02T08:41:34.821Z,99109.00
2023-02-02T08:44:01.673Z,99112.00
2023-02-02T08:46:28.648Z,99118.00
2023-02-02T08:48:55.602Z,99130.00
2023-02-02T08:51:22.563Z,99133.00
2023-02-02T08:53:49.469Z,99147.00
2023-02-02T08:56:21.501Z,99145.00
2023-02-02T08:58:55.659Z,99151.00
2023-02-02T09:01:29.817Z,99159.00
2023-02-02T09:04:02.342Z,99172.00
2023-02-02T09:06:40.839Z,99174.00
2023-02-02T09:09:12.960Z,99186.00
2023-02-02T09:11:40.540Z,99201.00
2023-02-02T09:14:07.819Z,99186.00
2023-02-02T09:16:36.230Z,99220.00
2023-02-02T09:19:04.060Z,99228.00
2023-02-02T09:21:31.299Z,99229.00
2023-02-02T09:23:58.134Z,99234.00
2023-02-02T09:26:29.902Z,99231.00
2023-02-02T09:29:03.563Z,99246.00
2023-02-02T09:31:36.430Z,99252.00
2023-02-02T09:34:08.773Z,99248.00
2023-02-02T09:36:36.724Z,99218.00
2023-02-02T09:39:05.381Z,99262.00
2023-02-02T09:41:41.148Z,99263.00
2023-02-02T09:44:29.403Z,99267.00
2023-02-02T09:47:32.401Z,99272.00
2023-02-02T09:50:30.944Z,99287.00
2023-02-02T09:53:53.146Z,99284.00
2023-02-02T09:56:37.775Z,99289.00
2023-02-02T09:59:20.365Z,99280.00
2023-02-02T10:01:55.298Z,99294.00
2023-02-02T10:04:38.877Z,99320.00
2023-02-02T10:07:18.711Z,99299.00
2023-02-02T10:09:55.629Z,99316.00
2023-02-02T10:12:47.646Z,99286.00
2023-02-02T10:16:01.576Z,99319.00
2023-02-02T10:18:47.218Z,99326.00
2023-02-02T10:21:48.111Z,99331.00
2023-02-02T10:24:26.315Z,99341.00
2023-02-02T10:27:21.576Z,99343.00
2023-02-02T10:30:03.539Z,99346.00
2023-02-02T10:32:45.302Z,99361.00
2023-02-02T10:35:42.108Z,99367.00
2023-02-02T10:38:41.374Z,99368.00
2023-02-02T10:41:30.324Z,99375.00
2023-02-02T10:44:21.473Z,99379.00
2023-02-02T10:46:55.736Z,99387.00
2023-02-02T10:49:37.495Z,99384.00
2023-02-02T10:52:11.055Z,99404.00
2023-02-02T10:54:58.341Z,99392.00
2023-02-02T10:58:00.919Z,99407.00
2023-02-02T11:00:48.430Z,99418.00
2023-02-02T11:03:19.651Z,99415.00
2023-02-02T11:06:05.645Z,99433.00
2023-02-02T11:08:48.545Z,99439.00
2023-02-02T11:11:39.566Z,99453.00
2023-02-02T11:14:09.618Z,99450.00
2023-02-02T11:16:44.551Z,99427.00
2023-02-02T11:19:17.160Z,99456.00
2023-02-02T11:21:56.794Z,99466.00
2023-02-02T11:24:41.223Z,99469.00
2023-02-02T11:27:31.133Z,99465.00
2023-02-02T11:30:09.634Z,99469.00
2023-02-02T11:32:37.725Z,99475.00
2023-02-02T11:35:04.686Z,99486.00
2023-02-02T11:37:51.860Z,99491.00
2023-02-02T11:40:34.375Z,99491.00
2023-02-02T11:43:15.064Z,99492.00
2023-02-02T11:45:45.407Z,99477.00
2023-02-02T11:48:24.370Z,99506.00
2023-02-02T11:50:57.857Z,99513.00
2023-02-02T11:53:35.664Z,99507.00
2023-02-02T11:56:25.513Z,99517.00
2023-02-02T11:58:55.612Z,99513.00
2023-02-02T12:01:39.794Z,99521.00
2023-02-02T12:04:15.817Z,99514.00
2023-02-02T12:06:43.389Z,99519.00
2023-02-02T12:09:33.521Z,99528.00
2023-02-02T12:12:17.515Z,99539.00
2023-02-02T12:15:36.046Z,99526.00
2023-02-02T12:18:31.877Z,99542.00
2023-02-02T12:21:11.164Z,99542.00
2023-02-02T12:24:04.933Z,99535.00
2023-02-02T12:26:35.477Z,99541.00
2023-02-02T12:29:14.624Z,99542.00
2023-02-02T12:32:17.603Z,99561.00
2023-02-02T12:34:58.782Z,99562.00
2023-02-02T12:37:51.740Z,99564.00
2023-02-02T12:40:48.738Z,99566.00
2023-02-02T12:43:41.713Z,99572.00
2023-02-02T12:46:47.989Z,99574.00
2023-02-02T12:49:35.483Z,99577.00
2023-02-02T12:52:44.390Z,99596.00
2023-02-02T12:55:37.407Z,99589.00
2023-02-02T12:58:39.130Z,99590.00
2023-02-02T13:01:38.750Z,99601.00
2023-02-02T13:04:35.627Z,99610.00
2023-02-02T13:07:16.726Z,99617.00
2023-02-02T13:10:27.547Z,99623.00
2023-02-02T13:13:01.468Z,99621.00
2023-02-02T13:15:36.431Z,99627.00
2023-02-02T13:18:29.752Z,99628.00
2023-02-02T13:21:02.610Z,99638.00
2023-02-02T13:24:01.425Z,99642.00
2023-02-02T13:26:42.461Z,99656.00
2023-02-02T13:29:26.598Z,99665.00
2023-02-02T13:32:28.708Z,99684.00
2023-02-02T13:35:23.062Z,99686.00
2023-02-02T13:38:30.629Z,99686.00
2023-02-02T13:41:06.193Z,99678.00
2023-02-02T13:43:51.740Z,99701.00
2023-02-02T13:46:42.447Z,99716.00
2023-02-02T13:49:29.155Z,99708.00
2023-02-02T13:52:23.658Z,99717.00
2023-02-02T13:55:21.392Z,99721.00
2023-02-02T13:58:20.340Z,99721.00
2023-02-02T14:00:56.428Z,99716.00
2023-02-02T14:03:33.719Z,99725.00
2023-02-02T14:06:20.058Z,99722.00
2023-02-02T14:09:05.596Z,99728.00
2023-02-02T14:11:38.900Z,99745.00
2023-02-02T14:14:39.324Z,99758.00
2023-02-02T14:17:22.033Z,99761.00
2023-02-02T14:19:57.039Z,99781.00
2023-02-02T14:22:52.126Z,99786.00
2023-02-02T14:25:38.708Z,99787.00
2023-02-02T14:28:13.776Z,99792.00
2023-02-02T14:30:40.860Z,99808.00
2023-02-02T14:33:25.868Z,99818.00
2023-02-02T14:36:01.488Z,99825.00
2023-02-02T14:38:35.616Z,99830.00
2023-02-02T14:41:41.459Z,99845.00
2023-02-02T14:44:08.499Z,99838.00
2023-02-02T14:46:39.773Z,99812.00
2023-02-02T14:49:15.388Z,99847.00
2023-02-02T14:51:57.145Z,99859.00
2023-02-02T14:54:38.206Z,99870.00
2023-02-02T14:57:28.119Z,99884.00
2023-02-02T15:00:00.090Z,99893.00
2023-02-02T15:02:39.897Z,99893.00
2023-02-02T15:05:28.841Z,99908.00
2023-02-02T15:08:20.953Z,99923.00
2023-02-02T15:10:53.531Z,99926.00
2023-02-02T15:13:37.648Z,99934.00
2023-02-02T15:16:22.064Z,99950.00
2023-02-02T15:19:04.171Z,99931.00
2023-02-02T15:21:37.781Z,99953.00
2023-02-02T15:24:16.693Z,99954.00
2023-02-02T15:26:45.538Z,99970.00
2023-02-02T15:29:42.051Z,99980.00
2023-02-02T15:32:18.386Z,99977.00
2023-02-02T15:35:19.583Z,99996.00
2023-02-02T15:37:53.379Z,100001.00
2023-02-02T15:40:27.874Z,99988.00
2023-02-02T15:43:04.407Z,100004.00
2023-02-02T15:45:43.569Z,100011.00
2023-02-02T15:48:32.032Z,100013.00
2023-02-02T15:51:13.842Z,100022.00
2023-02-02T15:53:43.364Z,100033.00
2023-02-02T15:56:25.178Z,100028.00
2023-02-02T15:58:55.971Z,100037.00
2023-02-02T16:01:25.227Z,100044.00
2023-02-02T16:04:34.223Z,100049.00
2023-02-02T16:07:02.624Z,100055.00
2023-02-02T16:09:35.674Z,100047.00
2023-02-02T16:12:05.263Z,100076.00
2023-02-02T16:14:39.710Z,100082.00
2023-02-02T16:17:32.023Z,100096.00
2023-02-02T16:20:14.473Z,100097.00
2023-02-02T16:22:45.875Z,100107.00
2023-02-02T16:25:19.468Z,100111.00
2023-02-02T16:27:48.652Z,100122.00
2023-02-02T16:30:35.640Z,100126.00
2023-02-02T16:33:44.865Z,100130.00
2023-02-02T16:36:29.826Z,100127.00
2023-02-02T16:39:01.087Z,100130.00
2023-02-02T16:41:34.799Z,100153.00
2023-02-02T16:44:35.860Z,100155.00
2023-02-02T16:47:05.868Z,100152.00
2023-02-02T16:49:33.975Z,100176.00
2023-02-02T16:52:22.531Z,100168.00
2023-02-02T16:54:57.450Z,100175.00
2023-02-02T16:57:34.183Z,100171.00
2023-02-02T17:00:07.529Z,100181.00
2023-02-02T17:02:40.637Z,100193.00
2023-02-02T17:05:24.435Z,100183.00
2023-02-02T17:07:58.568Z,100192.00
2023-02-02T17:10:31.323Z,100097.00
2023-02-02T17:13:00.477Z,100200.00
2023-02-02T17:15:35.929Z,100203.00
2023-02-02T17:18:05.326Z,100216.00
2023-02-02T17:20:34.717Z,100221.00
2023-02-02T17:23:09.988Z,100222.00
2023-02-02T17:25:48.008Z,100231.00
2023-02-02T17:28:20.377Z,100234.00
2023-02-02T17:31:00.210Z,100237.00
2023-02-02T17:33:27.708Z,100248.00
2023-02-02T17:35:56.461Z,100254.00
2023-02-02T17:38:25.545Z,100258.00
2023-02-02T17:41:00.097Z,100259.00
2023-02-02T17:43:31.914Z,100277.00
2023-02-02T17:45:59.987Z,100283.00
2023-02-02T17:48:26.893Z,100286.00
2023-02-02T17:50:53.730Z,100284.00
2023-02-02T17:53:22.552Z,100290.00
2023-02-02T17:55:51.512Z,100295.00
2023-02-02T17:58:19.444Z,100304.00
2023-02-02T18:04:33.721Z,100312.00
2023-02-02T18:07:00.797Z,100317.00
2023-02-02T18:09:28.193Z,100319.00
2023-02-02T18:12:24.447Z,100322.00
2023-02-02T18:14:52.239Z,100331.00
2023-02-02T18:17:19.272Z,100325.00
2023-02-02T18:19:47.396Z,100335.00
2023-02-02T18:22:14.509Z,100342.00
2023-02-02T18:24:41.498Z,100334.00
2023-02-02T18:27:10.148Z,100348.00
2023-02-02T18:29:37.071Z,100346.00
2023-02-02T18:32:04.309Z,100346.00
2023-02-02T18:34:33.956Z,100366.00
2023-02-02T18:37:01.472Z,100353.00
2023-02-02T18:39:29.403Z,100364.00
2023-02-02T18:41:57.615Z,100359.00
2023-02-02T18:44:27.722Z,100366.00
2023-02-02T18:46:54.984Z,100361.00
2023-02-02T18:49:22.176Z,100373.00
2023-02-02T18:51:49.202Z,100368.00
2023-02-02T18:54:18.726Z,100379.00
2023-02-02T18:56:45.850Z,100381.00
2023-02-02T18:59:16.593Z,100376.00
2023-02-02T19:01:50.245Z,100388.00
2023-02-02T19:04:34.420Z,100399.00
2023-02-02T19:07:21.119Z,100399.00
2023-02-02T19:09:48.286Z,100389.00
2023-02-02T19:12:15.881Z,100405.00
2023-02-02T19:14:43.305Z,100400.00
2023-02-02T19:17:22.549Z,100402.00
2023-02-02T19:19:50.683Z,100400.00
2023-02-02T19:22:24.259Z,100408.00
2023-02-02T19:24:51.649Z,100409.00
2023-02-02T19:27:25.022Z,100405.00
2023-02-02T19:29:56.748Z,100405.00
2023-02-02T19:32:31.830Z,100411.00
2023-02-02T19:35:57.370Z,100419.00
2023-02-02T19:38:30.063Z,100423.00
2023-02-02T19:41:00.029Z,100424.00
2023-02-02T19:43:29.810Z,100427.00
2023-02-02T19:46:00.166Z,100417.00
2023-02-02T19:48:35.432Z,100421.00
2023-02-02T19:51:42.064Z,100419.00
2023-02-02T19:54:27.946Z,100430.00
2023-02-02T19:57:00.041Z,100418.00
2023-02-02T19:59:34.800Z,100414.00
2023-02-02T20:02:50.721Z,100434.00
2023-02-02T20:05:27.677Z,100430.00
2023-02-02T20:08:15.954Z,100443.00
2023-02-02T20:10:46.749Z,100446.00
2023-02-02T20:13:33.823Z,100456.00
2023-02-02T20:16:04.913Z,100429.00
2023-02-02T20:18:45.615Z,100459.00
2023-02-02T20:21:45.627Z,100466.00
2023-02-02T20:24:48.633Z,100470.00
2023-02-02T20:27:28.075Z,100471.00
2023-02-02T20:30:07.327Z,100470.00
2023-02-02T20:32:41.723Z,100463.00
2023-02-02T20:35:38.715Z,100487.00
2023-02-02T20:38:35.896Z,100497.00
2023-02-02T20:41:05.844Z,100491.00
2023-02-02T20:43:33.148Z,100486.00
2023-02-02T20:46:00.162Z,100475.00
2023-02-02T20:48:27.659Z,100469.00
2023-02-02T20:50:54.737Z,100469.00
2023-02-02T20:53:22.328Z,100473.00
2023-02-02T20:55:49.398Z,100484.00
2023-02-02T20:58:16.374Z,100491.00
2023-02-02T21:00:43.357Z,100494.00
2023-02-02T21:03:15.192Z,100506.00
2023-02-02T21:05:42.420Z,100502.00
2023-02-02T21:08:10.148Z,100526.00
2023-02-02T21:10:38.772Z,100523.00
2023-02-02T21:13:09.846Z,100528.00
2023-02-02T21:15:36.889Z,100522.00
2023-02-02T21:18:03.756Z,100536.00
2023-02-02T21:20:30.709Z,100544.00
2023-02-02T21:22:57.704Z,100523.00
2023-02-02T21:25:24.566Z,100551.00
2023-02-02T21:27:51.410Z,100554.00
2023-02-02T21:30:18.732Z,100562.00
2023-02-02T21:32:45.633Z,100570.00
2023-02-02T21:35:14.195Z,100557.00
2023-02-02T21:37:44.198Z,100569.00
2023-02-02T21:40:24.943Z,100557.00
2023-02-02T21:42:51.971Z,100559.00
2023-02-02T21:45:36.453Z,100550.00
2023-02-02T21:48:21.386Z,100545.00
2023-02-02T21:50:48.525Z,100544.00
2023-02-02T21:53:20.174Z,100549.00
2023-02-02T21:55:59.760Z,100538.00
2023-02-02T21:58:35.068Z,100545.00
2023-02-02T22:01:39.569Z,100547.00
2023-02-02T22:04:33.878Z,100555.00
2023-02-02T22:07:13.743Z,100559.00
2023-02-02T22:09:43.923Z,100555.00
2023-02-02T22:12:41.506Z,100559.00
2023-02-02T22:15:20.525Z,100559.00
2023-02-02T22:17:47.387Z,100557.00
2023-02-02T22:20:17.520Z,100549.00
2023-02-02T22:22:51.166Z,100544.00
2023-02-02T22:25:17.899Z,100543.00
2023-02-02T22:27:57.491Z,100532.00
2023-02-02T22:30:37.640Z,100542.00
2023-02-02T22:33:07.366Z,100538.00
2023-02-02T22:35:34.855Z,100541.00
2023-02-02T22:38:02.778Z,100510.00
2023-02-02T22:40:29.889Z,100535.00
2023-02-02T22:43:01.375Z,100542.00
2023-02-02T22:45:28.868Z,100536.00
2023-02-02T22:47:55.733Z,100557.00
2023-02-02T22:50:31.890Z,100551.00
2023-02-02T22:52:58.798Z,100540.00
2023-02-02T22:55:25.717Z,100569.00
2023-02-02T22:57:52.951Z,100549.00
2023-02-02T23:00:27.222Z,100566.00
2023-02-02T23:02:55.935Z,100569.00
2023-02-02T23:05:24.827Z,100574.00
2023-02-02T23:07:53.488Z,100567.00
2023-02-02T23:10:25.438Z,100578.00
2023-02-02T23:12:55.745Z,100573.00
2023-02-02T23:15:22.896Z,100572.00
2023-02-02T23:17:50.228Z,100569.00
2023-02-02T23:20:18.694Z,100554.00
2023-02-02T23:22:45.662Z,100529.00
2023-02-02T23:25:14.529Z,100571.00
2023-02-02T23:27:42.531Z,100571.00
2023-02-02T23:30:12.219Z,100568.00
2023-02-02T23:32:39.075Z,100578.00
2023-02-02T23:35:10.100Z,100570.00
2023-02-02T23:37:37.454Z,100572.00
2023-02-02T23:40:05.602Z,100572.00
2023-02-02T23:42:33.594Z,100574.00
2023-02-02T23:45:00.556Z,100576.00
2023-02-02T23:47:27.749Z,100565.00
2023-02-02T23:49:55.265Z,100534.00
2023-02-02T23:52:22.170Z,100574.00
2023-02-02T23:54:49.097Z,100578.00
2023-02-02T23:57:16.096Z,100569.00
2023-02-02T23:59:42.896Z,100565.00
